createdAt,value
2023-01-20T00:00:33.311Z,99358.97
2023-01-20T00:03:21.006Z,99409.22
2023-01-20T00:06:09.792Z,99389.88
2023-01-20T00:08:59.753Z,99380.50
2023-01-20T00:11:47.586Z,99353.94
2023-01-20T00:14:35.311Z,99356.50
2023-01-20T00:17:22.999Z,99354.13
2023-01-20T00:20:11.640Z,99327.50
2023-01-20T00:22:59.329Z,99367.78
2023-01-20T00:25:47.052Z,99364.75
2023-01-20T00:28:36.083Z,99345.53
2023-01-20T00:31:29.024Z,99363.00
2023-01-20T00:34:16.763Z,99367.41
2023-01-20T00:37:05.521Z,99366.41
2023-01-20T00:39:53.195Z,99372.38
2023-01-20T00:42:40.881Z,99367.94
2023-01-20T00:45:28.613Z,99382.28
2023-01-20T00:48:16.730Z,99356.78
2023-01-20T00:51:05.743Z,99397.28
2023-01-20T00:53:53.655Z,99366.09
2023-01-20T00:56:41.209Z,99418.66
2023-01-20T00:59:28.950Z,99457.81
2023-01-20T01:02:16.743Z,99472.00
2023-01-20T01:05:04.602Z,99485.97
2023-01-20T01:07:52.337Z,99477.13
2023-01-20T01:10:40.888Z,99512.56
2023-01-20T01:13:28.575Z,99496.78
2023-01-20T01:16:16.753Z,99506.22
2023-01-20T01:19:04.617Z,99493.66
2023-01-20T01:21:52.234Z,99511.19
2023-01-20T01:24:39.953Z,99512.53
2023-01-20T01:27:28.875Z,99519.03
2023-01-20T01:30:16.838Z,99528.31
2023-01-20T01:33:04.596Z,99526.94
2023-01-20T01:35:57.247Z,99486.34
2023-01-20T01:38:45.110Z,99370.50
2023-01-20T01:41:45.345Z,99227.44
2023-01-20T01:44:33.035Z,99162.38
2023-01-20T01:47:20.744Z,99174.16
2023-01-20T01:50:12.089Z,99182.53
2023-01-20T01:53:00.034Z,99155.72
2023-01-20T01:55:56.549Z,99126.59
2023-01-20T01:58:49.310Z,99167.75
2023-01-20T02:01:39.747Z,99187.09
2023-01-20T02:04:28.473Z,99188.47
2023-01-20T02:07:19.782Z,99177.13
2023-01-20T02:10:07.766Z,99161.41
2023-01-20T02:12:55.590Z,99144.34
2023-01-20T02:16:08.844Z,99126.16
2023-01-20T02:19:15.271Z,99131.75
2023-01-20T02:22:21.544Z,99122.63
2023-01-20T02:25:21.125Z,99129.97
2023-01-20T02:28:42.680Z,99165.31
2023-01-20T02:32:07.702Z,99168.41
2023-01-20T02:35:11.283Z,99174.66
2023-01-20T02:38:23.852Z,99164.31
2023-01-20T02:41:19.099Z,99146.75
2023-01-20T02:44:34.691Z,99179.34
2023-01-20T02:47:35.950Z,99150.72
2023-01-20T02:50:28.031Z,99175.34
2023-01-20T02:53:19.979Z,99182.81
2023-01-20T02:56:09.656Z,99194.56
2023-01-20T02:59:06.616Z,99194.13
2023-01-20T03:02:02.787Z,99185.50
2023-01-20T03:04:56.776Z,99171.00
2023-01-20T03:07:46.191Z,99161.03
2023-01-20T03:10:37.847Z,99157.97
2023-01-20T03:13:46.861Z,99154.06
2023-01-20T03:16:34.861Z,99157.59
2023-01-20T03:19:22.588Z,99152.34
2023-01-20T03:22:10.475Z,99136.06
2023-01-20T03:24:59.450Z,99145.59
2023-01-20T03:27:47.633Z,99124.94
2023-01-20T03:30:57.372Z,99147.13
2023-01-20T03:33:47.337Z,99143.72
2023-01-20T03:36:35.211Z,99119.88
2023-01-20T03:39:24.673Z,99135.13
2023-01-20T03:42:46.351Z,99128.72
2023-01-20T03:46:03.492Z,99134.88
2023-01-20T03:49:01.555Z,99122.25
2023-01-20T03:52:00.811Z,99128.66
2023-01-20T03:54:59.319Z,99117.81
2023-01-20T03:58:12.610Z,99108.78
2023-01-20T04:01:16.388Z,99091.94
2023-01-20T04:04:10.506Z,99103.47
2023-01-20T04:06:58.459Z,99097.63
2023-01-20T04:09:51.486Z,99076.53
2023-01-20T04:12:42.012Z,99102.72
2023-01-20T04:15:35.361Z,99104.31
2023-01-20T04:18:24.538Z,99101.03
2023-01-20T04:21:31.715Z,99071.75
2023-01-20T04:24:28.986Z,99043.16
2023-01-20T04:27:16.694Z,99087.00
2023-01-20T04:30:04.694Z,99078.94
2023-01-20T04:32:52.356Z,99076.19
2023-01-20T04:35:40.331Z,99059.25
2023-01-20T04:38:30.455Z,99038.31
2023-01-20T04:41:18.154Z,99061.22
2023-01-20T04:44:06.112Z,99063.16
2023-01-20T04:46:59.148Z,99068.25
2023-01-20T04:49:50.988Z,99079.69
2023-01-20T04:52:38.791Z,99075.69
2023-01-20T04:55:26.962Z,99076.75
2023-01-20T04:58:15.004Z,99067.44
2023-01-20T05:01:03.257Z,99060.28
2023-01-20T05:03:54.119Z,99061.03
2023-01-20T05:06:43.711Z,99053.06
2023-01-20T05:09:33.330Z,99031.22
2023-01-20T05:12:20.991Z,99046.28
2023-01-20T05:15:09.035Z,99051.75
2023-01-20T05:17:56.850Z,99024.22
2023-01-20T05:20:49.399Z,99028.81
2023-01-20T05:23:37.094Z,99000.09
2023-01-20T05:26:26.112Z,99027.31
2023-01-20T05:29:13.745Z,99036.00
2023-01-20T05:32:01.456Z,99037.47
2023-01-20T05:34:49.133Z,99028.97
2023-01-20T05:37:36.894Z,99003.53
2023-01-20T05:40:24.578Z,99026.50
2023-01-20T05:43:13.075Z,99013.06
2023-01-20T05:46:00.986Z,99014.00
2023-01-20T05:48:48.663Z,98979.72
2023-01-20T05:51:36.304Z,99022.72
2023-01-20T05:54:24.069Z,99010.88
2023-01-20T05:57:11.753Z,99003.78
2023-01-20T05:59:59.464Z,99019.66
2023-01-20T06:02:47.239Z,99021.53
2023-01-20T06:05:34.966Z,98990.94
2023-01-20T06:08:22.792Z,99048.22
2023-01-20T06:11:11.050Z,99023.53
2023-01-20T06:13:58.880Z,99032.31
2023-01-20T06:16:46.562Z,99057.25
2023-01-20T06:19:34.324Z,99061.94
2023-01-20T06:22:22.075Z,99054.50
2023-01-20T06:25:10.069Z,99047.81
2023-01-20T06:27:57.750Z,99049.84
2023-01-20T06:30:45.426Z,99050.31
2023-01-20T06:33:34.654Z,99063.63
2023-01-20T06:36:22.852Z,99055.75
2023-01-20T06:39:10.548Z,99088.06
2023-01-20T06:41:59.416Z,99089.28
2023-01-20T06:44:47.091Z,99091.59
2023-01-20T06:47:34.745Z,99105.06
2023-01-20T06:50:22.607Z,99049.63
2023-01-20T06:53:11.782Z,99117.63
2023-01-20T06:56:00.704Z,99136.50
2023-01-20T06:58:48.405Z,99139.28
2023-01-20T07:01:36.232Z,99145.88
2023-01-20T07:04:26.648Z,99147.75
2023-01-20T07:07:16.483Z,99139.38
2023-01-20T07:10:04.588Z,99158.63
2023-01-20T07:12:55.200Z,99148.19
2023-01-20T07:15:42.968Z,99179.38
2023-01-20T07:18:30.748Z,99183.41
2023-01-20T07:21:19.218Z,99174.63
2023-01-20T07:24:07.093Z,99171.31
2023-01-20T07:26:54.835Z,99179.16
2023-01-20T07:29:42.626Z,99173.81
2023-01-20T07:32:34.109Z,99170.16
2023-01-20T07:35:21.823Z,99176.66
2023-01-20T07:38:09.540Z,99156.91
2023-01-20T07:40:58.877Z,99145.59
2023-01-20T07:43:49.010Z,99158.72
2023-01-20T07:46:36.986Z,99119.16
2023-01-20T07:49:24.757Z,99143.97
2023-01-20T07:52:12.535Z,99158.16
2023-01-20T07:55:00.385Z,99166.91
2023-01-20T07:57:48.214Z,99152.50
2023-01-20T08:00:35.844Z,99130.72
2023-01-20T08:03:27.166Z,99112.53
2023-01-20T08:06:17.646Z,99113.03
2023-01-20T08:09:05.499Z,99095.59
2023-01-20T08:11:53.208Z,99114.25
2023-01-20T08:14:40.957Z,99114.72
2023-01-20T08:17:28.706Z,99110.84
2023-01-20T08:20:19.482Z,99106.06
2023-01-20T08:23:07.722Z,99051.75
2023-01-20T08:26:00.292Z,98988.50
2023-01-20T08:28:48.046Z,98999.25
2023-01-20T08:31:36.749Z,99028.09
2023-01-20T08:34:24.521Z,99014.66
2023-01-20T08:37:12.337Z,99028.34
2023-01-20T08:40:00.034Z,99031.13
2023-01-20T08:42:50.517Z,99045.59
2023-01-20T08:45:38.403Z,99075.03
2023-01-20T08:48:26.074Z,99066.38
2023-01-20T08:51:21.630Z,99054.63
2023-01-20T08:54:09.689Z,99052.72
2023-01-20T08:56:57.350Z,99029.06
2023-01-20T08:59:47.047Z,99049.75
2023-01-20T09:02:34.975Z,99043.84
2023-01-20T09:05:22.796Z,99045.00
2023-01-20T09:08:10.607Z,99046.59
2023-01-20T09:11:04.860Z,99050.97
2023-01-20T09:13:53.096Z,99043.81
2023-01-20T09:16:43.228Z,99039.41
2023-01-20T09:19:31.243Z,99044.84
2023-01-20T09:22:19.073Z,99037.03
2023-01-20T09:25:09.942Z,99015.28
2023-01-20T09:28:01.292Z,99001.47
2023-01-20T09:30:49.213Z,98974.56
2023-01-20T09:33:39.425Z,98960.41
2023-01-20T09:36:29.592Z,98929.09
2023-01-20T09:39:36.225Z,98910.81
2023-01-20T09:43:06.522Z,98907.25
2023-01-20T09:46:04.119Z,98903.31
2023-01-20T09:49:42.134Z,98834.56
2023-01-20T09:52:54.880Z,98870.22
2023-01-20T09:56:25.902Z,98841.41
2023-01-20T09:59:26.465Z,98823.69
2023-01-20T10:02:33.977Z,98778.34
2023-01-20T10:05:27.328Z,98796.97
2023-01-20T10:08:24.430Z,98800.19
2023-01-20T10:11:24.656Z,98822.31
2023-01-20T10:14:29.037Z,98815.28
2023-01-20T10:17:31.451Z,98814.47
2023-01-20T10:20:28.267Z,98803.50
2023-01-20T10:23:34.004Z,98799.56
2023-01-20T10:26:29.131Z,98798.38
2023-01-20T10:29:38.445Z,98802.03
2023-01-20T10:32:36.826Z,98812.66
2023-01-20T10:35:31.254Z,98825.72
2023-01-20T10:38:33.273Z,98816.22
2023-01-20T10:41:27.344Z,98809.19
2023-01-20T10:44:16.162Z,98825.81
2023-01-20T10:47:26.230Z,98807.63
2023-01-20T10:50:16.923Z,98821.13
2023-01-20T10:53:25.570Z,98786.34
2023-01-20T10:56:33.056Z,98784.44
2023-01-20T10:59:34.636Z,98769.88
2023-01-20T11:02:29.853Z,98776.22
2023-01-20T11:05:21.254Z,98787.69
2023-01-20T11:08:28.553Z,98763.63
2023-01-20T11:11:22.827Z,98801.94
2023-01-20T11:14:10.747Z,98810.22
2023-01-20T11:17:06.798Z,98785.75
2023-01-20T11:20:05.680Z,98795.56
2023-01-20T11:22:53.475Z,98773.44
2023-01-20T11:25:41.168Z,98748.13
2023-01-20T11:28:37.161Z,98775.38
2023-01-20T11:31:41.481Z,98718.56
2023-01-20T11:34:35.027Z,98781.28
2023-01-20T11:37:34.874Z,98806.19
2023-01-20T11:40:27.800Z,98804.19
2023-01-20T11:43:29.168Z,98782.09
2023-01-20T11:46:22.695Z,98792.34
2023-01-20T11:49:24.820Z,98795.09
2023-01-20T11:52:24.449Z,98771.44
2023-01-20T11:55:21.209Z,98793.97
2023-01-20T11:58:18.534Z,98799.91
2023-01-20T12:01:07.616Z,98800.31
2023-01-20T12:03:58.439Z,98812.94
2023-01-20T12:07:03.987Z,98790.03
2023-01-20T12:09:59.504Z,98788.47
2023-01-20T12:12:47.170Z,98783.69
2023-01-20T12:15:56.484Z,98770.28
2023-01-20T12:19:01.734Z,98777.03
2023-01-20T12:21:56.126Z,98761.25
2023-01-20T12:25:08.510Z,98784.09
2023-01-20T12:28:10.528Z,98786.84
2023-01-20T12:31:01.497Z,98791.25
2023-01-20T12:33:52.202Z,98775.03
2023-01-20T12:36:57.978Z,98798.34
2023-01-20T12:40:17.291Z,98799.56
2023-01-20T12:43:20.183Z,98793.22
2023-01-20T12:46:33.803Z,98793.63
2023-01-20T12:49:33.700Z,98796.41
2023-01-20T12:52:45.155Z,98789.72
2023-01-20T12:55:41.716Z,98796.81
2023-01-20T12:58:44.811Z,98794.44
2023-01-20T13:01:35.224Z,98799.56
2023-01-20T13:04:41.570Z,98793.66
2023-01-20T13:07:41.112Z,98801.16
2023-01-20T13:10:51.538Z,98790.88
2023-01-20T13:14:09.196Z,98779.44
2023-01-20T13:17:10.071Z,98794.84
2023-01-20T13:20:01.841Z,98796.41
2023-01-20T13:22:51.547Z,98781.41
2023-01-20T13:25:41.106Z,98796.81
2023-01-20T13:28:30.483Z,98799.94
2023-01-20T13:31:45.207Z,98807.47
2023-01-20T13:34:35.160Z,98816.94
2023-01-20T13:37:29.776Z,98828.03
2023-01-20T13:40:45.655Z,98833.13
2023-01-20T13:43:35.655Z,98842.22
2023-01-20T13:46:35.843Z,98825.25
2023-01-20T13:49:30.097Z,98861.16
2023-01-20T13:52:50.194Z,98867.09
2023-01-20T13:55:46.177Z,98862.31
2023-01-20T13:58:35.171Z,98865.44
2023-01-20T14:01:22.726Z,98918.31
2023-01-20T14:04:17.128Z,98913.53
2023-01-20T14:07:10.019Z,98926.72
2023-01-20T14:10:00.465Z,98943.41
2023-01-20T14:12:49.127Z,98955.69
2023-01-20T14:15:40.184Z,98963.53
2023-01-20T14:18:28.435Z,98970.69
2023-01-20T14:21:25.137Z,98986.19
2023-01-20T14:24:34.673Z,98996.22
2023-01-20T14:27:24.182Z,99014.66
2023-01-20T14:30:16.843Z,98996.28
2023-01-20T14:33:09.147Z,99032.81
2023-01-20T14:35:57.358Z,99040.38
2023-01-20T14:38:57.211Z,99015.72
2023-01-20T14:41:47.898Z,99046.22
2023-01-20T14:44:35.891Z,99046.88
2023-01-20T14:47:25.848Z,99044.06
2023-01-20T14:50:15.975Z,99057.38
2023-01-20T14:53:04.566Z,99059.91
2023-01-20T14:56:03.121Z,99031.34
2023-01-20T14:58:54.987Z,99029.56
2023-01-20T15:01:43.382Z,99014.94
2023-01-20T15:04:38.293Z,99013.88
2023-01-20T15:07:26.919Z,99050.78
2023-01-20T15:10:18.560Z,99025.25
2023-01-20T15:13:23.981Z,99076.13
2023-01-20T15:16:18.682Z,99114.53
2023-01-20T15:19:23.053Z,99149.75
2023-01-20T15:22:22.048Z,99117.59
2023-01-20T15:25:13.749Z,99137.66
2023-01-20T15:28:01.532Z,99147.25
2023-01-20T15:30:49.444Z,99162.75
2023-01-20T15:33:39.221Z,99150.66
2023-01-20T15:36:33.523Z,99157.19
2023-01-20T15:39:29.199Z,99189.78
2023-01-20T15:42:18.792Z,99176.00
2023-01-20T15:45:06.962Z,99175.53
2023-01-20T15:47:54.723Z,99174.84
2023-01-20T15:50:43.211Z,99205.06
2023-01-20T15:53:31.175Z,99205.19
2023-01-20T15:56:28.395Z,99208.25
2023-01-20T15:59:23.241Z,99209.84
2023-01-20T16:02:29.274Z,99225.25
2023-01-20T16:05:17.834Z,99226.16
2023-01-20T16:08:21.226Z,99232.41
2023-01-20T16:11:10.304Z,99230.47
2023-01-20T16:13:59.428Z,99232.16
2023-01-20T16:16:47.367Z,99234.09
2023-01-20T16:19:36.510Z,99216.97
2023-01-20T16:22:24.299Z,99251.88
2023-01-20T16:25:11.915Z,99250.22
2023-01-20T16:27:59.866Z,99270.13
2023-01-20T16:30:48.662Z,99256.88
2023-01-20T16:33:36.318Z,99284.59
2023-01-20T16:36:28.895Z,99275.44
2023-01-20T16:39:16.600Z,99297.00
2023-01-20T16:42:04.579Z,99303.88
2023-01-20T16:44:53.298Z,99307.59
2023-01-20T16:47:43.517Z,99318.78
2023-01-20T16:50:31.286Z,99315.81
2023-01-20T16:53:20.215Z,99338.97
2023-01-20T16:56:14.351Z,99323.44
2023-01-20T16:59:02.924Z,99355.56
2023-01-20T17:01:50.737Z,99372.59
2023-01-20T17:04:39.125Z,99372.38
2023-01-20T17:07:28.018Z,99352.72
2023-01-20T17:10:17.100Z,99385.13
2023-01-20T17:13:05.136Z,99378.94
2023-01-20T17:15:52.986Z,99361.91
2023-01-20T17:18:45.368Z,99395.72
2023-01-20T17:21:34.996Z,99361.47
2023-01-20T17:24:22.940Z,99393.31
2023-01-20T17:27:10.742Z,99381.28
2023-01-20T17:29:58.494Z,99386.13
2023-01-20T17:32:48.466Z,99388.69
2023-01-20T17:35:36.350Z,99399.63
2023-01-20T17:38:24.700Z,99390.34
2023-01-20T17:41:14.213Z,99386.66
2023-01-20T17:44:04.425Z,99399.34
2023-01-20T17:46:52.035Z,99376.94
2023-01-20T17:49:39.923Z,99413.81
2023-01-20T17:52:28.545Z,99425.59
2023-01-20T17:55:16.429Z,99428.97
2023-01-20T17:58:07.301Z,99431.03
2023-01-20T18:00:55.003Z,99432.84
2023-01-20T18:03:44.381Z,99450.03
2023-01-20T18:06:35.224Z,99444.97
2023-01-20T18:09:25.463Z,99451.91
2023-01-20T18:12:13.580Z,99469.44
2023-01-20T18:15:03.827Z,99473.81
2023-01-20T18:17:51.598Z,99470.78
2023-01-20T18:20:40.027Z,99470.00
2023-01-20T18:23:27.684Z,99388.00
2023-01-20T18:26:17.947Z,99482.03
2023-01-20T18:29:12.983Z,99478.22
2023-01-20T18:32:00.820Z,99488.06
2023-01-20T18:34:48.512Z,99473.59
2023-01-20T18:37:36.370Z,99481.03
2023-01-20T18:40:26.429Z,99490.38
2023-01-20T18:43:14.329Z,99458.31
2023-01-20T18:46:02.017Z,99414.59
2023-01-20T18:48:52.299Z,99499.91
2023-01-20T18:51:42.532Z,99498.22
2023-01-20T18:54:33.069Z,99492.13
2023-01-20T18:57:20.647Z,99520.03
2023-01-20T19:00:09.081Z,99517.13
2023-01-20T19:02:58.626Z,99490.38
2023-01-20T19:05:48.431Z,99521.66
2023-01-20T19:08:36.239Z,99527.91
2023-01-20T19:11:26.224Z,99534.81
2023-01-20T19:14:15.427Z,99528.38
2023-01-20T19:17:03.240Z,99546.22
2023-01-20T19:19:50.855Z,99556.50
2023-01-20T19:22:44.365Z,99551.84
2023-01-20T19:26:43.306Z,99561.97
2023-01-20T19:29:31.069Z,99559.53
2023-01-20T19:32:18.640Z,99561.75
2023-01-20T19:35:06.843Z,99587.72
2023-01-20T19:37:55.386Z,99585.94
2023-01-20T19:40:43.256Z,99591.38
2023-01-20T19:43:30.915Z,99581.41
2023-01-20T19:46:20.172Z,99606.78
2023-01-20T19:49:07.918Z,99575.75
2023-01-20T19:51:55.790Z,99616.56
2023-01-20T19:54:43.610Z,99590.91
2023-01-20T19:57:31.282Z,99602.09
2023-01-20T20:00:19.582Z,99603.81
2023-01-20T20:03:10.025Z,99652.94
2023-01-20T20:05:58.064Z,99616.59
2023-01-20T20:08:45.918Z,99650.28
2023-01-20T20:11:34.509Z,99593.13
2023-01-20T20:14:27.495Z,99646.44
2023-01-20T20:17:15.136Z,99643.44
2023-01-20T20:20:03.495Z,99653.63
2023-01-20T20:22:51.259Z,99664.56
2023-01-20T20:25:39.056Z,99680.38
2023-01-20T20:28:30.715Z,99674.94
2023-01-20T20:31:20.685Z,99684.69
2023-01-20T20:34:12.397Z,99675.81
2023-01-20T20:37:00.108Z,99651.56
2023-01-20T20:39:47.736Z,99687.25
2023-01-20T20:42:35.590Z,99681.91
2023-01-20T20:45:23.326Z,99684.31
2023-01-20T20:48:11.008Z,99685.22
2023-01-20T20:51:17.075Z,99691.41
2023-01-20T20:54:15.130Z,99699.69
2023-01-20T20:57:03.068Z,99696.53
2023-01-20T20:59:59.013Z,99700.69
2023-01-20T21:02:49.100Z,99702.56
2023-01-20T21:05:36.841Z,99721.78
2023-01-20T21:08:26.373Z,99708.38
2023-01-20T21:11:17.379Z,99683.53
2023-01-20T21:14:04.984Z,99707.00
2023-01-20T21:16:52.763Z,99742.09
2023-01-20T21:19:43.250Z,99732.44
2023-01-20T21:22:31.227Z,99733.41
2023-01-20T21:25:18.949Z,99737.00
2023-01-20T21:28:07.645Z,99741.66
2023-01-20T21:30:55.711Z,99753.66
2023-01-20T21:33:46.118Z,99759.72
2023-01-20T21:36:34.717Z,99754.78
2023-01-20T21:39:25.093Z,99722.59
2023-01-20T21:42:24.655Z,99761.56
2023-01-20T21:45:14.778Z,99764.91
2023-01-20T21:48:24.909Z,99773.63
2023-01-20T21:51:50.855Z,99798.00
2023-01-20T21:54:40.341Z,99792.06
2023-01-20T21:57:29.464Z,99778.47
2023-01-20T22:00:18.024Z,99771.81
2023-01-20T22:03:07.952Z,99757.34
2023-01-20T22:05:57.644Z,99770.81
2023-01-20T22:08:47.575Z,99740.22
2023-01-20T22:11:35.197Z,99762.28
2023-01-20T22:14:23.006Z,99772.25
2023-01-20T22:17:13.624Z,99762.28
2023-01-20T22:20:01.406Z,99794.19
2023-01-20T22:22:50.093Z,99786.53
2023-01-20T22:25:38.294Z,99798.81
2023-01-20T22:28:26.131Z,99810.09
2023-01-20T22:31:21.989Z,99817.28
2023-01-20T22:34:10.580Z,99802.06
2023-01-20T22:37:03.417Z,99806.06
2023-01-20T22:39:51.124Z,99792.50
2023-01-20T22:42:38.924Z,99786.97
2023-01-20T22:45:27.130Z,99790.28
2023-01-20T22:48:14.848Z,99770.34
2023-01-20T22:51:07.383Z,99802.56
2023-01-20T22:53:57.032Z,99807.59
2023-01-20T22:56:44.865Z,99747.09
2023-01-20T22:59:36.110Z,99790.28
2023-01-20T23:02:23.798Z,99780.22
2023-01-20T23:05:14.144Z,99797.63
2023-01-20T23:08:04.980Z,99805.78
2023-01-20T23:11:00.310Z,99808.81
2023-01-20T23:13:51.248Z,99815.66
2023-01-20T23:16:39.885Z,99800.66
2023-01-20T23:19:27.519Z,99808.47
2023-01-20T23:22:15.386Z,99816.72
2023-01-20T23:25:02.988Z,99827.19
2023-01-20T23:27:53.635Z,99810.56
2023-01-20T23:30:41.715Z,99834.16
2023-01-20T23:33:29.983Z,99815.31
2023-01-20T23:36:20.100Z,99830.03
2023-01-20T23:39:11.383Z,99837.97
2023-01-20T23:41:59.021Z,99851.81
2023-01-20T23:44:47.050Z,99840.00
2023-01-20T23:47:34.710Z,99857.88
2023-01-20T23:50:22.541Z,99847.97
2023-01-20T23:53:10.179Z,99858.66
2023-01-20T23:56:19.434Z,99860.84
2023-01-20T23:59:07.092Z,99832.09
